sensor_id;sensor_type;location;lat;lon;timestamp;P1;durP1;ratioP1;P2;durP2;ratioP2
44000;SDS011;29660;42.892;24.710;2022-11-27T00:01:55;64.15;;;33.00;;
44000;SDS011;29660;42.892;24.710;2022-11-27T00:06:57;60.63;;;34.15;;
44000;SDS011;29660;42.892;24.710;2022-11-27T00:11:59;44.60;;;28.05;;
44000;SDS011;29660;42.892;24.710;2022-11-27T00:17:01;39.38;;;24.48;;
44000;SDS011;29660;42.892;24.710;2022-11-27T00:22:03;30.55;;;17.30;;
44000;SDS011;29660;42.892;24.710;2022-11-27T00:27:05;25.15;;;15.07;;
44000;SDS011;29660;42.892;24.710;2022-11-27T00:32:07;68.20;;;36.88;;
44000;SDS011;29660;42.892;24.710;2022-11-27T00:37:09;59.90;;;32.15;;
44000;SDS011;29660;42.892;24.710;2022-11-27T00:42:12;41.83;;;23.48;;
44000;SDS011;29660;42.892;24.710;2022-11-27T00:47:14;37.33;;;22.75;;
44000;SDS011;29660;42.892;24.710;2022-11-27T00:52:16;35.67;;;19.95;;
44000;SDS011;29660;42.892;24.710;2022-11-27T00:57:19;47.10;;;30.92;;
44000;SDS011;29660;42.892;24.710;2022-11-27T01:02:21;43.35;;;23.90;;
44000;SDS011;29660;42.892;24.710;2022-11-27T01:07:23;40.78;;;23.83;;
44000;SDS011;29660;42.892;24.710;2022-11-27T01:12:27;35.60;;;21.25;;
44000;SDS011;29660;42.892;24.710;2022-11-27T01:17:29;105.22;;;56.88;;
44000;SDS011;29660;42.892;24.710;2022-11-27T01:22:31;44.50;;;28.35;;
44000;SDS011;29660;42.892;24.710;2022-11-27T01:27:33;39.70;;;26.10;;
44000;SDS011;29660;42.892;24.710;2022-11-27T01:32:35;44.17;;;30.52;;
44000;SDS011;29660;42.892;24.710;2022-11-27T01:37:37;48.03;;;29.88;;
44000;SDS011;29660;42.892;24.710;2022-11-27T01:42:39;32.00;;;20.23;;
44000;SDS011;29660;42.892;24.710;2022-11-27T01:47:43;34.22;;;22.63;;
44000;SDS011;29660;42.892;24.710;2022-11-27T01:52:58;44.42;;;30.45;;
44000;SDS011;29660;42.892;24.710;2022-11-27T01:58:17;45.58;;;29.17;;
44000;SDS011;29660;42.892;24.710;2022-11-27T02:03:22;62.88;;;35.90;;
44000;SDS011;29660;42.892;24.710;2022-11-27T02:08:24;36.38;;;23.27;;
44000;SDS011;29660;42.892;24.710;2022-11-27T02:13:31;32.97;;;20.80;;
44000;SDS011;29660;42.892;24.710;2022-11-27T02:45:00;28.20;;;18.85;;
44000;SDS011;29660;42.892;24.710;2022-11-27T02:50:07;26.55;;;17.00;;
44000;SDS011;29660;42.892;24.710;2022-11-27T02:55:13;44.20;;;27.70;;
44000;SDS011;29660;42.892;24.710;2022-11-27T03:00:18;36.70;;;23.42;;
44000;SDS011;29660;42.892;24.710;2022-11-27T03:05:20;36.05;;;24.45;;
44000;SDS011;29660;42.892;24.710;2022-11-27T03:10:47;50.83;;;28.35;;
44000;SDS011;29660;42.892;24.710;2022-11-27T03:15:58;42.15;;;23.88;;
44000;SDS011;29660;42.892;24.710;2022-11-27T03:26:48;34.42;;;21.38;;
44000;SDS011;29660;42.892;24.710;2022-11-27T03:31:51;38.53;;;22.88;;
44000;SDS011;29660;42.892;24.710;2022-11-27T03:36:53;80.43;;;49.30;;
44000;SDS011;29660;42.892;24.710;2022-11-27T03:58:08;52.17;;;33.65;;
44000;SDS011;29660;42.892;24.710;2022-11-27T04:03:20;41.78;;;28.67;;
44000;SDS011;29660;42.892;24.710;2022-11-27T04:08:26;34.10;;;24.08;;
44000;SDS011;29660;42.892;24.710;2022-11-27T04:13:28;32.63;;;21.05;;
44000;SDS011;29660;42.892;24.710;2022-11-27T04:18:30;48.42;;;29.63;;
44000;SDS011;29660;42.892;24.710;2022-11-27T04:23:32;47.20;;;27.33;;
44000;SDS011;29660;42.892;24.710;2022-11-27T04:28:34;50.25;;;30.38;;
44000;SDS011;29660;42.892;24.710;2022-11-27T04:33:36;28.35;;;19.10;;
44000;SDS011;29660;42.892;24.710;2022-11-27T04:38:38;34.10;;;21.20;;
44000;SDS011;29660;42.892;24.710;2022-11-27T04:43:40;23.27;;;14.63;;
44000;SDS011;29660;42.892;24.710;2022-11-27T04:48:41;23.45;;;17.65;;
44000;SDS011;29660;42.892;24.710;2022-11-27T04:53:43;20.95;;;13.38;;
44000;SDS011;29660;42.892;24.710;2022-11-27T04:58:45;19.10;;;12.10;;
44000;SDS011;29660;42.892;24.710;2022-11-27T05:03:47;80.38;;;56.28;;
44000;SDS011;29660;42.892;24.710;2022-11-27T05:08:49;20.20;;;13.50;;
44000;SDS011;29660;42.892;24.710;2022-11-27T05:13:51;21.80;;;13.88;;
44000;SDS011;29660;42.892;24.710;2022-11-27T05:19:14;44.67;;;26.33;;
44000;SDS011;29660;42.892;24.710;2022-11-27T05:24:17;50.78;;;29.88;;
44000;SDS011;29660;42.892;24.710;2022-11-27T05:29:21;26.10;;;17.65;;
44000;SDS011;29660;42.892;24.710;2022-11-27T05:34:24;24.27;;;17.98;;
44000;SDS011;29660;42.892;24.710;2022-11-27T05:39:26;30.75;;;18.70;;
44000;SDS011;29660;42.892;24.710;2022-11-27T05:44:28;60.25;;;41.00;;
44000;SDS011;29660;42.892;24.710;2022-11-27T05:49:30;33.55;;;22.63;;
44000;SDS011;29660;42.892;24.710;2022-11-27T05:54:32;43.55;;;28.23;;
44000;SDS011;29660;42.892;24.710;2022-11-27T05:59:33;36.30;;;25.23;;
44000;SDS011;29660;42.892;24.710;2022-11-27T06:04:35;68.35;;;50.83;;
44000;SDS011;29660;42.892;24.710;2022-11-27T06:09:37;124.97;;;92.82;;
44000;SDS011;29660;42.892;24.710;2022-11-27T06:14:39;56.95;;;40.00;;
44000;SDS011;29660;42.892;24.710;2022-11-27T06:19:42;169.25;;;111.53;;
44000;SDS011;29660;42.892;24.710;2022-11-27T06:24:44;82.55;;;61.95;;
44000;SDS011;29660;42.892;24.710;2022-11-27T06:29:46;199.38;;;128.25;;
44000;SDS011;29660;42.892;24.710;2022-11-27T06:34:48;98.50;;;65.10;;
44000;SDS011;29660;42.892;24.710;2022-11-27T06:39:50;47.85;;;33.35;;
44000;SDS011;29660;42.892;24.710;2022-11-27T06:44:52;49.40;;;32.75;;
44000;SDS011;29660;42.892;24.710;2022-11-27T06:49:54;48.88;;;35.45;;
44000;SDS011;29660;42.892;24.710;2022-11-27T06:54:56;52.58;;;38.55;;
44000;SDS011;29660;42.892;24.710;2022-11-27T06:59:57;78.13;;;50.00;;
44000;SDS011;29660;42.892;24.710;2022-11-27T07:04:59;63.50;;;45.60;;
44000;SDS011;29660;42.892;24.710;2022-11-27T07:10:01;92.38;;;68.05;;
44000;SDS011;29660;42.892;24.710;2022-11-27T07:15:03;120.55;;;83.28;;
44000;SDS011;29660;42.892;24.710;2022-11-27T07:20:06;113.65;;;75.53;;
44000;SDS011;29660;42.892;24.710;2022-11-27T07:25:08;89.45;;;67.22;;
44000;SDS011;29660;42.892;24.710;2022-11-27T07:30:10;75.45;;;55.00;;
44000;SDS011;29660;42.892;24.710;2022-11-27T07:35:13;73.10;;;51.58;;
44000;SDS011;29660;42.892;24.710;2022-11-27T07:40:15;61.95;;;42.55;;
44000;SDS011;29660;42.892;24.710;2022-11-27T07:45:19;54.25;;;38.85;;
44000;SDS011;29660;42.892;24.710;2022-11-27T07:50:20;58.95;;;42.80;;
44000;SDS011;29660;42.892;24.710;2022-11-27T07:55:22;74.50;;;51.83;;
44000;SDS011;29660;42.892;24.710;2022-11-27T08:00:24;59.50;;;43.92;;
44000;SDS011;29660;42.892;24.710;2022-11-27T08:05:27;51.70;;;39.95;;
44000;SDS011;29660;42.892;24.710;2022-11-27T08:10:30;62.95;;;48.00;;
44000;SDS011;29660;42.892;24.710;2022-11-27T08:15:35;58.47;;;44.00;;
44000;SDS011;29660;42.892;24.710;2022-11-27T08:20:39;49.35;;;35.33;;
44000;SDS011;29660;42.892;24.710;2022-11-27T08:25:41;48.03;;;38.78;;
44000;SDS011;29660;42.892;24.710;2022-11-27T08:30:42;60.15;;;45.40;;
44000;SDS011;29660;42.892;24.710;2022-11-27T08:35:48;65.45;;;46.83;;
44000;SDS011;29660;42.892;24.710;2022-11-27T08:40:57;51.67;;;37.33;;
44000;SDS011;29660;42.892;24.710;2022-11-27T08:46:04;50.22;;;36.72;;
44000;SDS011;29660;42.892;24.710;2022-11-27T08:51:09;62.60;;;45.13;;
44000;SDS011;29660;42.892;24.710;2022-11-27T08:56:14;54.40;;;38.55;;
44000;SDS011;29660;42.892;24.710;2022-11-27T09:01:19;37.72;;;27.23;;
44000;SDS011;29660;42.892;24.710;2022-11-27T09:06:27;35.70;;;27.77;;
44000;SDS011;29660;42.892;24.710;2022-11-27T09:11:32;25.38;;;19.13;;
44000;SDS011;29660;42.892;24.710;2022-11-27T09:16:35;31.17;;;18.85;;
44000;SDS011;29660;42.892;24.710;2022-11-27T09:21:38;58.70;;;27.95;;
44000;SDS011;29660;42.892;24.710;2022-11-27T09:26:40;61.97;;;27.40;;
44000;SDS011;29660;42.892;24.710;2022-11-27T09:31:42;76.25;;;31.65;;
44000;SDS011;29660;42.892;24.710;2022-11-27T09:36:44;77.22;;;30.10;;
44000;SDS011;29660;42.892;24.710;2022-11-27T09:41:50;73.95;;;25.92;;
44000;SDS011;29660;42.892;24.710;2022-11-27T09:46:57;44.72;;;20.63;;
44000;SDS011;29660;42.892;24.710;2022-11-27T09:57:34;16.45;;;11.57;;
44000;SDS011;29660;42.892;24.710;2022-11-27T10:02:39;22.80;;;11.88;;
44000;SDS011;29660;42.892;24.710;2022-11-27T10:07:50;11.55;;;7.43;;
44000;SDS011;29660;42.892;24.710;2022-11-27T10:18:39;9.55;;;8.00;;
44000;SDS011;29660;42.892;24.710;2022-11-27T10:35:04;15.30;;;10.13;;
44000;SDS011;29660;42.892;24.710;2022-11-27T10:50:18;19.83;;;14.00;;
44000;SDS011;29660;42.892;24.710;2022-11-27T10:55:30;20.85;;;8.88;;
44000;SDS011;29660;42.892;24.710;2022-11-27T11:00:35;24.38;;;11.95;;
44000;SDS011;29660;42.892;24.710;2022-11-27T11:05:37;23.67;;;11.88;;
44000;SDS011;29660;42.892;24.710;2022-11-27T11:11:02;16.27;;;5.70;;
44000;SDS011;29660;42.892;24.710;2022-11-27T11:16:15;29.08;;;19.58;;
44000;SDS011;29660;42.892;24.710;2022-11-27T11:21:26;17.13;;;9.25;;
44000;SDS011;29660;42.892;24.710;2022-11-27T11:26:35;44.90;;;23.63;;
44000;SDS011;29660;42.892;24.710;2022-11-27T11:31:39;17.13;;;8.32;;
44000;SDS011;29660;42.892;24.710;2022-11-27T11:36:52;20.35;;;11.15;;
44000;SDS011;29660;42.892;24.710;2022-11-27T11:42:08;16.92;;;8.95;;
44000;SDS011;29660;42.892;24.710;2022-11-27T11:47:18;14.23;;;5.93;;
44000;SDS011;29660;42.892;24.710;2022-11-27T12:19:14;58.67;;;21.20;;
44000;SDS011;29660;42.892;24.710;2022-11-27T12:34:39;14.32;;;9.50;;
44000;SDS011;29660;42.892;24.710;2022-11-27T12:45:30;74.20;;;53.92;;
44000;SDS011;29660;42.892;24.710;2022-11-27T12:51:21;11.00;;;8.43;;
44000;SDS011;29660;42.892;24.710;2022-11-27T12:56:28;9.98;;;8.32;;
44000;SDS011;29660;42.892;24.710;2022-11-27T13:01:44;23.45;;;11.43;;
44000;SDS011;29660;42.892;24.710;2022-11-27T13:07:05;21.77;;;10.00;;
44000;SDS011;29660;42.892;24.710;2022-11-27T13:12:23;34.20;;;11.45;;
44000;SDS011;29660;42.892;24.710;2022-11-27T13:22:42;15.52;;;9.27;;
44000;SDS011;29660;42.892;24.710;2022-11-27T13:27:45;30.73;;;12.55;;
44000;SDS011;29660;42.892;24.710;2022-11-27T13:32:52;165.70;;;118.13;;
44000;SDS011;29660;42.892;24.710;2022-11-27T13:38:06;79.18;;;51.85;;
44000;SDS011;29660;42.892;24.710;2022-11-27T13:49:02;21.85;;;16.50;;
44000;SDS011;29660;42.892;24.710;2022-11-27T13:54:13;29.75;;;16.00;;
44000;SDS011;29660;42.892;24.710;2022-11-27T13:59:18;8.05;;;5.53;;
44000;SDS011;29660;42.892;24.710;2022-11-27T14:04:23;20.60;;;11.38;;
44000;SDS011;29660;42.892;24.710;2022-11-27T14:09:33;12.55;;;9.02;;
44000;SDS011;29660;42.892;24.710;2022-11-27T14:14:36;18.27;;;11.20;;
44000;SDS011;29660;42.892;24.710;2022-11-27T14:19:44;43.22;;;33.72;;
44000;SDS011;29660;42.892;24.710;2022-11-27T14:25:01;35.28;;;23.08;;
44000;SDS011;29660;42.892;24.710;2022-11-27T14:30:10;21.80;;;14.95;;
44000;SDS011;29660;42.892;24.710;2022-11-27T14:35:26;16.33;;;12.68;;
44000;SDS011;29660;42.892;24.710;2022-11-27T14:40:29;21.48;;;14.50;;
44000;SDS011;29660;42.892;24.710;2022-11-27T14:45:31;41.28;;;28.13;;
44000;SDS011;29660;42.892;24.710;2022-11-27T14:50:33;28.83;;;16.95;;
44000;SDS011;29660;42.892;24.710;2022-11-27T14:55:35;28.02;;;13.35;;
44000;SDS011;29660;42.892;24.710;2022-11-27T15:00:37;43.40;;;23.83;;
44000;SDS011;29660;42.892;24.710;2022-11-27T15:05:39;37.40;;;29.88;;
44000;SDS011;29660;42.892;24.710;2022-11-27T15:10:41;36.10;;;26.90;;
44000;SDS011;29660;42.892;24.710;2022-11-27T15:15:43;48.42;;;29.50;;
44000;SDS011;29660;42.892;24.710;2022-11-27T15:20:55;50.47;;;27.90;;
44000;SDS011;29660;42.892;24.710;2022-11-27T15:31:01;35.72;;;21.65;;
44000;SDS011;29660;42.892;24.710;2022-11-27T15:36:22;21.98;;;14.40;;
44000;SDS011;29660;42.892;24.710;2022-11-27T15:41:25;28.52;;;21.55;;
44000;SDS011;29660;42.892;24.710;2022-11-27T15:46:29;25.98;;;19.15;;
44000;SDS011;29660;42.892;24.710;2022-11-27T15:51:35;29.10;;;22.55;;
44000;SDS011;29660;42.892;24.710;2022-11-27T15:56:37;60.03;;;44.75;;
44000;SDS011;29660;42.892;24.710;2022-11-27T16:01:39;84.18;;;68.05;;
44000;SDS011;29660;42.892;24.710;2022-11-27T16:06:41;28.77;;;23.50;;
44000;SDS011;29660;42.892;24.710;2022-11-27T16:11:43;48.90;;;36.53;;
44000;SDS011;29660;42.892;24.710;2022-11-27T16:16:46;57.75;;;42.55;;
44000;SDS011;29660;42.892;24.710;2022-11-27T16:21:48;108.68;;;84.47;;
44000;SDS011;29660;42.892;24.710;2022-11-27T16:26:50;58.97;;;46.97;;
44000;SDS011;29660;42.892;24.710;2022-11-27T16:31:52;71.03;;;51.25;;
44000;SDS011;29660;42.892;24.710;2022-11-27T16:36:54;72.78;;;59.03;;
44000;SDS011;29660;42.892;24.710;2022-11-27T16:41:57;137.32;;;91.78;;
44000;SDS011;29660;42.892;24.710;2022-11-27T16:47:00;142.10;;;96.05;;
44000;SDS011;29660;42.892;24.710;2022-11-27T16:52:03;135.45;;;94.13;;
44000;SDS011;29660;42.892;24.710;2022-11-27T16:57:05;107.07;;;75.20;;
44000;SDS011;29660;42.892;24.710;2022-11-27T17:02:08;218.40;;;166.45;;
44000;SDS011;29660;42.892;24.710;2022-11-27T17:07:10;284.48;;;168.10;;
44000;SDS011;29660;42.892;24.710;2022-11-27T17:12:12;150.13;;;108.68;;
44000;SDS011;29660;42.892;24.710;2022-11-27T17:17:14;146.52;;;114.30;;
44000;SDS011;29660;42.892;24.710;2022-11-27T17:22:16;113.03;;;87.07;;
44000;SDS011;29660;42.892;24.710;2022-11-27T17:27:18;93.68;;;77.25;;
44000;SDS011;29660;42.892;24.710;2022-11-27T17:32:20;78.05;;;57.55;;
44000;SDS011;29660;42.892;24.710;2022-11-27T17:37:22;74.32;;;57.95;;
44000;SDS011;29660;42.892;24.710;2022-11-27T17:42:24;125.15;;;92.60;;
44000;SDS011;29660;42.892;24.710;2022-11-27T17:47:26;113.18;;;84.88;;
44000;SDS011;29660;42.892;24.710;2022-11-27T17:52:28;278.27;;;183.20;;
44000;SDS011;29660;42.892;24.710;2022-11-27T17:57:30;164.73;;;119.90;;
44000;SDS011;29660;42.892;24.710;2022-11-27T18:02:32;155.30;;;113.05;;
44000;SDS011;29660;42.892;24.710;2022-11-27T18:07:34;92.10;;;60.53;;
44000;SDS011;29660;42.892;24.710;2022-11-27T18:12:36;56.05;;;40.70;;
44000;SDS011;29660;42.892;24.710;2022-11-27T18:17:38;38.08;;;26.90;;
44000;SDS011;29660;42.892;24.710;2022-11-27T18:22:40;139.80;;;93.43;;
44000;SDS011;29660;42.892;24.710;2022-11-27T18:27:42;109.53;;;72.13;;
44000;SDS011;29660;42.892;24.710;2022-11-27T18:32:44;104.05;;;62.63;;
44000;SDS011;29660;42.892;24.710;2022-11-27T18:37:46;117.75;;;72.28;;
44000;SDS011;29660;42.892;24.710;2022-11-27T18:42:48;126.28;;;87.03;;
44000;SDS011;29660;42.892;24.710;2022-11-27T18:47:50;178.85;;;129.43;;
44000;SDS011;29660;42.892;24.710;2022-11-27T18:52:52;195.10;;;139.60;;
44000;SDS011;29660;42.892;24.710;2022-11-27T18:57:55;122.57;;;88.85;;
44000;SDS011;29660;42.892;24.710;2022-11-27T19:02:57;106.43;;;77.70;;
44000;SDS011;29660;42.892;24.710;2022-11-27T19:07:59;155.15;;;108.63;;
44000;SDS011;29660;42.892;24.710;2022-11-27T19:13:04;147.75;;;103.90;;
44000;SDS011;29660;42.892;24.710;2022-11-27T19:18:06;103.78;;;76.45;;
44000;SDS011;29660;42.892;24.710;2022-11-27T19:23:08;157.77;;;105.00;;
44000;SDS011;29660;42.892;24.710;2022-11-27T19:28:11;51.97;;;35.42;;
44000;SDS011;29660;42.892;24.710;2022-11-27T19:33:13;59.58;;;42.40;;
44000;SDS011;29660;42.892;24.710;2022-11-27T19:38:15;87.68;;;67.38;;
44000;SDS011;29660;42.892;24.710;2022-11-27T19:43:17;84.43;;;63.00;;
44000;SDS011;29660;42.892;24.710;2022-11-27T19:48:20;51.78;;;35.28;;
44000;SDS011;29660;42.892;24.710;2022-11-27T19:53:24;44.90;;;33.20;;
44000;SDS011;29660;42.892;24.710;2022-11-27T19:58:27;45.38;;;33.25;;
44000;SDS011;29660;42.892;24.710;2022-11-27T20:03:29;43.75;;;32.88;;
44000;SDS011;29660;42.892;24.710;2022-11-27T20:08:30;47.28;;;36.05;;
44000;SDS011;29660;42.892;24.710;2022-11-27T20:13:33;39.22;;;25.67;;
44000;SDS011;29660;42.892;24.710;2022-11-27T20:18:36;30.80;;;21.92;;
44000;SDS011;29660;42.892;24.710;2022-11-27T20:23:39;46.42;;;31.08;;
44000;SDS011;29660;42.892;24.710;2022-11-27T20:28:41;53.45;;;35.45;;
44000;SDS011;29660;42.892;24.710;2022-11-27T20:33:44;31.15;;;22.30;;
44000;SDS011;29660;42.892;24.710;2022-11-27T20:38:46;28.65;;;21.42;;
44000;SDS011;29660;42.892;24.710;2022-11-27T20:43:52;34.50;;;25.92;;
44000;SDS011;29660;42.892;24.710;2022-11-27T20:48:57;36.93;;;27.30;;
44000;SDS011;29660;42.892;24.710;2022-11-27T20:54:00;46.53;;;35.42;;
44000;SDS011;29660;42.892;24.710;2022-11-27T20:59:03;49.28;;;36.78;;
44000;SDS011;29660;42.892;24.710;2022-11-27T21:04:08;50.75;;;38.88;;
44000;SDS011;29660;42.892;24.710;2022-11-27T21:09:20;37.42;;;30.15;;
44000;SDS011;29660;42.892;24.710;2022-11-27T21:14:22;36.42;;;27.75;;
44000;SDS011;29660;42.892;24.710;2022-11-27T21:19:26;41.03;;;30.02;;
44000;SDS011;29660;42.892;24.710;2022-11-27T21:24:29;62.60;;;40.72;;
44000;SDS011;29660;42.892;24.710;2022-11-27T21:29:33;60.00;;;43.25;;
44000;SDS011;29660;42.892;24.710;2022-11-27T21:34:35;69.93;;;47.45;;
44000;SDS011;29660;42.892;24.710;2022-11-27T21:39:37;78.93;;;54.65;;
44000;SDS011;29660;42.892;24.710;2022-11-27T21:44:40;55.85;;;40.58;;
44000;SDS011;29660;42.892;24.710;2022-11-27T21:49:43;60.10;;;40.88;;
44000;SDS011;29660;42.892;24.710;2022-11-27T21:54:46;64.35;;;42.45;;
44000;SDS011;29660;42.892;24.710;2022-11-27T21:59:52;75.00;;;49.10;;
44000;SDS011;29660;42.892;24.710;2022-11-27T22:04:54;73.50;;;44.58;;
44000;SDS011;29660;42.892;24.710;2022-11-27T22:09:56;70.63;;;46.15;;
44000;SDS011;29660;42.892;24.710;2022-11-27T22:14:58;80.63;;;49.30;;
44000;SDS011;29660;42.892;24.710;2022-11-27T22:19:59;61.33;;;36.53;;
44000;SDS011;29660;42.892;24.710;2022-11-27T22:25:03;57.10;;;36.60;;
44000;SDS011;29660;42.892;24.710;2022-11-27T22:30:05;44.08;;;31.42;;
44000;SDS011;29660;42.892;24.710;2022-11-27T22:35:08;41.42;;;26.48;;
44000;SDS011;29660;42.892;24.710;2022-11-27T22:40:10;59.65;;;40.72;;
44000;SDS011;29660;42.892;24.710;2022-11-27T22:45:13;61.78;;;40.17;;
44000;SDS011;29660;42.892;24.710;2022-11-27T22:50:15;50.13;;;35.08;;
44000;SDS011;29660;42.892;24.710;2022-11-27T22:55:17;37.20;;;27.60;;
44000;SDS011;29660;42.892;24.710;2022-11-27T23:00:19;47.17;;;33.60;;
44000;SDS011;29660;42.892;24.710;2022-11-27T23:05:22;52.60;;;36.60;;
44000;SDS011;29660;42.892;24.710;2022-11-27T23:10:24;44.40;;;31.73;;
44000;SDS011;29660;42.892;24.710;2022-11-27T23:15:26;53.65;;;38.05;;
44000;SDS011;29660;42.892;24.710;2022-11-27T23:20:28;45.83;;;30.48;;
44000;SDS011;29660;42.892;24.710;2022-11-27T23:25:30;48.47;;;34.63;;
44000;SDS011;29660;42.892;24.710;2022-11-27T23:30:33;82.40;;;61.45;;
44000;SDS011;29660;42.892;24.710;2022-11-27T23:35:36;54.45;;;36.17;;
44000;SDS011;29660;42.892;24.710;2022-11-27T23:40:38;43.47;;;27.10;;
44000;SDS011;29660;42.892;24.710;2022-11-27T23:45:40;42.08;;;27.63;;
44000;SDS011;29660;42.892;24.710;2022-11-27T23:50:42;36.50;;;24.73;;
44000;SDS011;29660;42.892;24.710;2022-11-27T23:55:44;46.75;;;27.27;;
